createdAt,value
2018-01-30T00:00:00.054Z,65.27
2018-01-30T00:02:27.607Z,65.33
2018-01-30T00:04:55.168Z,65.44
2018-01-30T00:07:22.834Z,65.39
2018-01-30T00:09:50.382Z,65.28
2018-01-30T00:12:17.943Z,65.26
2018-01-30T00:14:45.528Z,65.33
2018-01-30T00:17:13.162Z,65.12
2018-01-30T00:19:40.943Z,65.07
2018-01-30T00:22:08.628Z,64.94
2018-01-30T00:24:36.740Z,65.04
2018-01-30T00:27:04.260Z,64.85
2018-01-30T00:29:31.803Z,64.88
2018-01-30T00:31:59.312Z,64.64
2018-01-30T00:34:26.857Z,64.63
2018-01-30T00:36:54.549Z,64.58
2018-01-30T00:39:22.067Z,64.44
2018-01-30T00:41:49.601Z,64.52
2018-01-30T00:44:17.108Z,64.55
2018-01-30T00:46:44.653Z,64.40
2018-01-30T00:49:12.332Z,64.67
2018-01-30T00:51:39.855Z,64.41
2018-01-30T00:54:07.453Z,64.59
2018-01-30T00:56:34.986Z,64.60
2018-01-30T00:59:02.500Z,64.61
2018-01-30T01:01:30.325Z,64.62
2018-01-30T01:03:57.868Z,64.75
2018-01-30T01:06:25.414Z,64.75
2018-01-30T01:08:52.948Z,64.86
2018-01-30T01:11:20.458Z,64.91
2018-01-30T01:13:48.142Z,64.82
2018-01-30T01:16:15.714Z,64.62
2018-01-30T01:18:43.258Z,64.76
2018-01-30T01:21:10.807Z,64.97
2018-01-30T01:23:38.345Z,64.78
2018-01-30T01:26:06.173Z,64.85
2018-01-30T01:28:33.756Z,64.90
2018-01-30T01:31:01.503Z,64.80
2018-01-30T01:33:29.061Z,64.77
2018-01-30T01:35:56.613Z,64.77
2018-01-30T01:38:24.173Z,64.85
2018-01-30T01:40:51.721Z,64.94
2018-01-30T01:43:19.408Z,64.79
2018-01-30T01:45:46.944Z,64.93
2018-01-30T01:48:14.512Z,64.77
2018-01-30T01:50:42.030Z,64.79
2018-01-30T01:53:09.604Z,64.75
2018-01-30T01:55:37.272Z,64.65
2018-01-30T01:58:04.833Z,64.65
2018-01-30T02:00:32.554Z,64.58
2018-01-30T02:03:00.118Z,64.47
2018-01-30T02:05:27.662Z,64.68
2018-01-30T02:07:55.220Z,64.64
2018-01-30T02:10:22.763Z,64.54
2018-01-30T02:12:50.442Z,64.53
2018-01-30T02:15:18.012Z,64.73
2018-01-30T02:17:45.530Z,64.57
2018-01-30T02:20:13.061Z,64.62
2018-01-30T02:22:40.586Z,64.53
2018-01-30T02:25:08.304Z,64.58
2018-01-30T02:27:35.844Z,64.69
2018-01-30T02:30:05.303Z,64.83
2018-01-30T02:32:32.874Z,64.85
2018-01-30T02:35:00.488Z,64.97
2018-01-30T02:37:28.061Z,65.04
2018-01-30T02:39:55.612Z,64.95
2018-01-30T02:42:23.287Z,64.87
2018-01-30T02:44:50.837Z,64.92
2018-01-30T02:47:18.363Z,64.93
2018-01-30T02:49:45.910Z,64.93
2018-01-30T02:52:13.472Z,65.08
2018-01-30T02:54:41.158Z,64.79
2018-01-30T02:57:08.692Z,64.82
2018-01-30T02:59:36.254Z,64.63
2018-01-30T03:02:03.835Z,64.63
2018-01-30T03:04:31.394Z,64.57
2018-01-30T03:06:59.079Z,64.49
2018-01-30T03:09:26.628Z,64.52
2018-01-30T03:11:54.207Z,64.64
2018-01-30T03:14:21.776Z,64.05
2018-01-30T03:16:49.300Z,64.47
2018-01-30T03:19:16.971Z,64.54
2018-01-30T03:21:44.544Z,64.27
2018-01-30T03:24:12.159Z,64.54
2018-01-30T03:26:39.716Z,64.34
2018-01-30T03:29:07.298Z,64.35
2018-01-30T03:31:34.841Z,64.32
2018-01-30T03:34:02.403Z,64.16
2018-01-30T03:36:30.073Z,64.26
2018-01-30T03:38:57.591Z,64.29
2018-01-30T03:41:25.198Z,64.37
2018-01-30T03:43:52.721Z,64.19
2018-01-30T03:46:20.296Z,64.37
2018-01-30T03:48:47.964Z,64.25
2018-01-30T03:51:15.529Z,64.35
2018-01-30T03:53:43.045Z,64.07
2018-01-30T03:56:10.574Z,64.04
2018-01-30T03:58:38.119Z,64.13
2018-01-30T04:01:05.928Z,63.83
2018-01-30T04:03:33.444Z,64.00
2018-01-30T04:06:00.971Z,64.19
2018-01-30T04:08:28.526Z,63.89
2018-01-30T04:10:56.107Z,64.11
2018-01-30T04:13:23.760Z,64.10
2018-01-30T04:15:51.279Z,64.18
2018-01-30T04:18:18.800Z,64.22
2018-01-30T04:20:46.324Z,64.12
2018-01-30T04:23:13.868Z,64.09
2018-01-30T04:25:41.591Z,64.16
2018-01-30T04:28:09.118Z,64.27
2018-01-30T04:30:36.837Z,64.01
2018-01-30T04:33:04.400Z,64.34
2018-01-30T04:35:31.966Z,64.13
2018-01-30T04:37:59.511Z,64.36
2018-01-30T04:40:27.056Z,64.24
2018-01-30T04:42:54.747Z,64.19
2018-01-30T04:45:22.275Z,64.22
2018-01-30T04:47:49.838Z,64.29
2018-01-30T04:50:17.391Z,64.27
2018-01-30T04:52:44.981Z,64.25
2018-01-30T04:55:12.686Z,64.40
2018-01-30T04:57:40.238Z,64.00
2018-01-30T05:00:08.037Z,64.24
2018-01-30T05:02:35.642Z,64.30
2018-01-30T05:05:03.187Z,64.02
2018-01-30T05:07:30.805Z,64.39
2018-01-30T05:09:58.414Z,64.21
2018-01-30T05:12:26.133Z,64.17
2018-01-30T05:14:53.695Z,64.14
2018-01-30T05:17:21.229Z,64.32
2018-01-30T05:19:48.764Z,64.37
2018-01-30T05:22:16.305Z,64.22
2018-01-30T05:24:44.012Z,64.34
2018-01-30T05:27:11.618Z,64.34
2018-01-30T05:29:39.173Z,75.72
2018-01-30T05:32:06.752Z,51.18
2018-01-30T05:34:34.295Z,46.19
2018-01-30T05:37:01.963Z,46.35
2018-01-30T05:39:29.538Z,45.79
2018-01-30T05:41:57.100Z,46.22
2018-01-30T05:44:24.687Z,53.61
2018-01-30T05:46:52.234Z,49.96
2018-01-30T05:49:19.925Z,47.37
2018-01-30T05:51:47.457Z,46.06
2018-01-30T05:54:14.970Z,46.26
2018-01-30T05:56:42.495Z,45.69
2018-01-30T05:59:10.037Z,45.98
2018-01-30T06:01:37.581Z,45.68
2018-01-30T06:04:05.120Z,46.17
2018-01-30T06:06:32.842Z,45.98
2018-01-30T06:09:00.373Z,45.69
2018-01-30T06:11:27.901Z,45.42
2018-01-30T06:13:55.400Z,45.84
2018-01-30T06:16:22.938Z,45.30
2018-01-30T06:18:50.734Z,44.75
2018-01-30T06:21:18.764Z,44.11
2018-01-30T06:23:46.334Z,44.28
2018-01-30T06:26:14.257Z,44.24
2018-01-30T06:28:41.835Z,43.41
2018-01-30T06:31:09.841Z,42.42
2018-01-30T06:33:37.419Z,42.09
2018-01-30T06:36:04.971Z,43.11
2018-01-30T06:38:32.539Z,43.08
2018-01-30T06:41:00.054Z,42.47
2018-01-30T06:43:27.719Z,42.02
2018-01-30T06:45:55.248Z,41.52
2018-01-30T06:48:22.800Z,40.37
2018-01-30T06:50:50.315Z,41.15
2018-01-30T06:53:17.936Z,40.58
2018-01-30T06:55:45.636Z,39.95
2018-01-30T06:58:13.222Z,38.79
2018-01-30T07:00:40.959Z,38.36
2018-01-30T07:03:08.479Z,39.60
2018-01-30T07:05:35.986Z,39.53
2018-01-30T07:08:03.512Z,39.51
2018-01-30T07:10:31.206Z,37.18
2018-01-30T07:12:59.080Z,36.46
2018-01-30T07:15:26.637Z,35.90
2018-01-30T07:17:54.181Z,35.34
2018-01-30T07:20:21.756Z,35.54
2018-01-30T07:22:49.301Z,35.58
2018-01-30T07:25:17.021Z,37.07
2018-01-30T07:27:44.568Z,36.24
2018-01-30T07:30:12.264Z,35.54
2018-01-30T07:32:39.844Z,35.96
2018-01-30T07:35:07.589Z,34.92
2018-01-30T07:37:35.132Z,33.41
2018-01-30T07:40:02.677Z,32.43
2018-01-30T07:42:30.375Z,32.78
2018-01-30T07:44:57.884Z,32.86
2018-01-30T07:47:25.422Z,31.82
2018-01-30T07:49:52.940Z,31.22
2018-01-30T07:52:20.486Z,31.04
2018-01-30T07:54:48.167Z,31.09
2018-01-30T07:57:15.702Z,30.19
2018-01-30T07:59:43.346Z,30.00
2018-01-30T08:02:10.919Z,28.78
2018-01-30T08:04:38.433Z,27.19
2018-01-30T08:07:06.188Z,26.93
2018-01-30T08:09:33.713Z,26.18
2018-01-30T08:12:01.235Z,25.12
2018-01-30T08:14:28.748Z,23.85
2018-01-30T08:16:56.280Z,24.14
2018-01-30T08:19:23.944Z,24.09
2018-01-30T08:21:51.457Z,24.70
2018-01-30T08:24:18.961Z,23.89
2018-01-30T08:26:46.470Z,23.18
2018-01-30T08:29:13.974Z,22.47
2018-01-30T08:31:41.508Z,22.58
2018-01-30T08:34:09.024Z,21.52
2018-01-30T08:36:36.685Z,22.91
2018-01-30T08:39:04.309Z,21.64
2018-01-30T08:41:31.835Z,21.18
2018-01-30T08:43:59.405Z,21.04
2018-01-30T08:46:27.004Z,22.15
2018-01-30T08:48:54.826Z,22.58
2018-01-30T08:51:22.333Z,22.21
2018-01-30T08:53:49.849Z,23.51
2018-01-30T08:56:17.366Z,24.15
2018-01-30T08:58:44.875Z,23.16
2018-01-30T09:01:12.386Z,23.74
2018-01-30T09:03:39.927Z,24.05
2018-01-30T09:06:07.609Z,24.94
2018-01-30T09:08:35.133Z,25.04
2018-01-30T09:11:02.668Z,25.24
2018-01-30T09:13:30.199Z,25.72
2018-01-30T09:15:58.413Z,24.97
2018-01-30T09:18:26.092Z,24.33
2018-01-30T09:20:53.626Z,25.06
2018-01-30T09:23:21.151Z,25.30
2018-01-30T09:25:48.692Z,24.29
2018-01-30T09:28:16.201Z,25.13
2018-01-30T09:30:43.828Z,25.10
2018-01-30T09:33:11.329Z,24.50
2018-01-30T09:35:38.831Z,24.78
2018-01-30T09:38:06.341Z,25.61
2018-01-30T09:40:33.852Z,23.24
2018-01-30T09:43:01.536Z,23.72
2018-01-30T09:45:29.206Z,23.99
2018-01-30T09:47:56.892Z,24.16
2018-01-30T09:50:24.808Z,23.88
2018-01-30T09:52:52.364Z,24.62
2018-01-30T09:55:20.122Z,24.54
2018-01-30T09:57:47.636Z,24.29
2018-01-30T10:00:16.023Z,24.04
2018-01-30T10:02:43.565Z,23.46
2018-01-30T10:05:11.094Z,23.96
2018-01-30T10:07:39.541Z,23.98
2018-01-30T10:10:07.110Z,24.17
2018-01-30T10:12:34.749Z,23.66
2018-01-30T10:15:02.311Z,24.09
2018-01-30T10:17:29.855Z,23.29
2018-01-30T10:19:57.379Z,23.79
2018-01-30T10:22:24.904Z,24.86
2018-01-30T10:24:52.549Z,25.69
2018-01-30T10:27:20.246Z,23.71
2018-01-30T10:29:47.760Z,24.27
2018-01-30T10:32:15.279Z,23.70
2018-01-30T10:34:42.844Z,23.87
2018-01-30T10:37:10.520Z,23.29
2018-01-30T10:39:38.033Z,23.11
2018-01-30T10:42:05.623Z,23.03
2018-01-30T10:44:34.291Z,23.92
2018-01-30T10:47:01.792Z,23.59
2018-01-30T10:49:29.430Z,23.53
2018-01-30T10:51:56.946Z,23.23
2018-01-30T10:54:24.489Z,23.15
2018-01-30T10:56:52.045Z,23.39
2018-01-30T10:59:19.533Z,23.00
2018-01-30T11:01:47.066Z,23.15
2018-01-30T11:04:14.568Z,23.03
2018-01-30T11:06:42.243Z,23.36
2018-01-30T11:09:09.769Z,22.92
2018-01-30T11:11:37.321Z,23.31
2018-01-30T11:14:04.864Z,23.37
2018-01-30T11:16:32.389Z,23.76
2018-01-30T11:19:00.048Z,23.35
2018-01-30T11:24:09.656Z,22.50
2018-01-30T11:26:37.172Z,22.93
2018-01-30T11:29:04.694Z,23.13
2018-01-30T11:31:32.206Z,23.67
2018-01-30T11:33:59.718Z,23.37
2018-01-30T11:36:27.394Z,24.00
2018-01-30T11:38:54.902Z,23.26
2018-01-30T11:41:22.593Z,22.60
2018-01-30T11:43:50.160Z,22.83
2018-01-30T11:46:17.764Z,22.54
2018-01-30T11:48:45.440Z,22.37
2018-01-30T11:51:12.985Z,21.70
2018-01-30T11:53:40.519Z,21.28
2018-01-30T11:56:08.020Z,21.04
2018-01-30T11:58:35.567Z,21.20
2018-01-30T12:01:03.269Z,21.04
2018-01-30T12:03:30.789Z,20.42
2018-01-30T12:05:58.287Z,20.67
2018-01-30T12:08:25.814Z,20.58
2018-01-30T12:10:53.367Z,21.12
2018-01-30T12:13:22.113Z,20.23
2018-01-30T12:15:49.647Z,20.17
2018-01-30T12:18:17.152Z,19.39
2018-01-30T12:20:44.670Z,19.92
2018-01-30T12:23:12.204Z,19.70
2018-01-30T12:25:39.853Z,19.71
2018-01-30T12:28:07.362Z,19.59
2018-01-30T12:30:35.005Z,19.68
2018-01-30T12:33:02.518Z,19.65
2018-01-30T12:35:30.018Z,19.55
2018-01-30T12:37:57.550Z,20.16
2018-01-30T12:40:25.049Z,19.93
2018-01-30T12:42:52.694Z,19.92
2018-01-30T12:45:20.202Z,20.33
2018-01-30T12:47:47.714Z,20.13
2018-01-30T12:50:15.237Z,19.51
2018-01-30T12:52:42.759Z,19.55
2018-01-30T12:55:10.412Z,19.64
2018-01-30T12:57:37.996Z,19.95
2018-01-30T13:00:09.169Z,19.90
2018-01-30T13:02:36.705Z,19.85
2018-01-30T13:05:04.314Z,19.84
2018-01-30T13:07:31.826Z,19.78
2018-01-30T13:09:59.326Z,19.54
2018-01-30T13:12:27.022Z,19.53
2018-01-30T13:14:54.637Z,19.79
2018-01-30T13:17:22.217Z,19.84
2018-01-30T13:19:49.973Z,20.05
2018-01-30T13:22:18.117Z,19.96
2018-01-30T13:24:45.882Z,20.51
2018-01-30T13:27:13.464Z,19.84
2018-01-30T13:29:42.020Z,20.01
2018-01-30T13:32:09.553Z,19.93
2018-01-30T13:34:37.079Z,20.33
2018-01-30T13:37:04.755Z,20.39
2018-01-30T13:39:32.287Z,20.32
2018-01-30T13:41:59.813Z,20.30
2018-01-30T13:44:27.332Z,20.88
2018-01-30T13:46:54.851Z,20.63
2018-01-30T13:49:22.512Z,20.70
2018-01-30T13:51:50.025Z,21.02
2018-01-30T13:54:17.542Z,20.89
2018-01-30T13:56:45.062Z,21.00
2018-01-30T13:59:12.581Z,21.31
2018-01-30T14:01:40.084Z,21.81
2018-01-30T14:04:07.661Z,21.80
2018-01-30T14:06:35.286Z,21.89
2018-01-30T14:09:02.809Z,22.21
2018-01-30T14:11:30.310Z,22.71
2018-01-30T14:13:57.829Z,22.81
2018-01-30T14:16:25.330Z,23.08
2018-01-30T14:18:52.996Z,23.55
2018-01-30T14:21:20.555Z,23.85
2018-01-30T14:23:48.155Z,24.01
2018-01-30T14:26:15.668Z,24.54
2018-01-30T14:28:43.183Z,24.55
2018-01-30T14:31:10.694Z,24.60
2018-01-30T14:33:38.247Z,24.70
2018-01-30T14:36:05.904Z,24.98
2018-01-30T14:38:33.421Z,25.28
2018-01-30T14:41:00.981Z,25.59
2018-01-30T14:43:28.495Z,25.74
2018-01-30T14:45:56.054Z,26.02
2018-01-30T14:48:23.708Z,26.29
2018-01-30T14:50:51.241Z,26.57
2018-01-30T14:53:18.842Z,26.97
2018-01-30T14:55:46.326Z,27.35
2018-01-30T14:58:13.860Z,27.57
2018-01-30T15:00:41.543Z,27.70
2018-01-30T15:03:09.074Z,35.11
2018-01-30T15:05:36.596Z,37.98
2018-01-30T15:08:04.180Z,33.34
2018-01-30T15:10:31.683Z,30.86
2018-01-30T15:12:59.349Z,30.32
2018-01-30T15:15:26.933Z,29.88
2018-01-30T15:17:54.457Z,29.69
2018-01-30T15:20:22.776Z,29.56
2018-01-30T15:22:50.309Z,29.59
2018-01-30T15:25:17.992Z,29.50
2018-01-30T15:27:45.556Z,29.29
2018-01-30T15:30:14.014Z,29.43
2018-01-30T15:32:41.540Z,29.48
2018-01-30T15:35:09.045Z,29.43
2018-01-30T15:37:36.541Z,29.70
2018-01-30T15:40:04.055Z,30.01
2018-01-30T15:42:31.736Z,29.98
2018-01-30T15:44:59.459Z,30.12
2018-01-30T15:47:26.977Z,30.32
2018-01-30T15:49:54.486Z,30.21
2018-01-30T15:52:22.055Z,30.30
2018-01-30T15:54:49.722Z,30.39
2018-01-30T15:57:17.388Z,30.51
2018-01-30T15:59:45.024Z,30.61
2018-01-30T16:02:12.538Z,30.62
2018-01-30T16:04:40.176Z,30.88
2018-01-30T16:07:07.830Z,31.08
2018-01-30T16:09:35.961Z,30.87
2018-01-30T16:12:03.573Z,31.17
2018-01-30T16:14:31.070Z,31.13
2018-01-30T16:16:58.672Z,31.26
2018-01-30T16:19:26.343Z,31.17
2018-01-30T16:21:53.853Z,31.28
2018-01-30T16:24:21.362Z,31.33
2018-01-30T16:26:48.984Z,31.24
2018-01-30T16:29:16.497Z,31.44
2018-01-30T16:31:43.999Z,31.49
2018-01-30T16:34:11.687Z,31.68
2018-01-30T16:36:39.378Z,31.64
2018-01-30T16:39:07.041Z,31.63
2018-01-30T16:41:34.571Z,31.73
2018-01-30T16:44:02.378Z,31.82
2018-01-30T16:46:30.027Z,32.08
2018-01-30T16:48:58.336Z,32.17
2018-01-30T16:51:25.867Z,32.27
2018-01-30T16:53:53.357Z,32.35
2018-01-30T16:56:20.920Z,32.51
2018-01-30T16:58:48.532Z,41.55
2018-01-30T17:01:16.100Z,38.39
2018-01-30T17:03:43.700Z,35.99
2018-01-30T17:06:11.342Z,39.28
2018-01-30T17:08:38.863Z,36.33
2018-01-30T17:11:06.382Z,35.29
2018-01-30T17:13:33.928Z,34.49
2018-01-30T17:16:01.467Z,34.04
2018-01-30T17:18:29.211Z,34.14
2018-01-30T17:20:56.805Z,34.12
2018-01-30T17:23:25.244Z,34.17
2018-01-30T17:25:52.770Z,34.27
2018-01-30T17:28:20.477Z,34.73
2018-01-30T17:30:48.126Z,34.84
2018-01-30T17:33:15.663Z,34.79
2018-01-30T17:35:43.317Z,34.68
2018-01-30T17:38:10.978Z,34.48
2018-01-30T17:40:38.502Z,34.68
2018-01-30T17:43:06.141Z,34.50
2018-01-30T17:45:33.656Z,34.57
2018-01-30T17:48:01.169Z,34.31
2018-01-30T17:50:28.722Z,34.48
2018-01-30T17:52:56.248Z,34.61
2018-01-30T17:55:23.900Z,34.74
2018-01-30T17:57:51.486Z,34.71
2018-01-30T18:00:19.236Z,34.74
2018-01-30T18:02:46.760Z,34.89
2018-01-30T18:05:14.269Z,34.97
2018-01-30T18:07:41.812Z,35.10
2018-01-30T18:10:09.454Z,34.96
2018-01-30T18:12:37.172Z,35.20
2018-01-30T18:15:04.742Z,35.18
2018-01-30T18:17:32.276Z,35.36
2018-01-30T18:19:59.812Z,35.26
2018-01-30T18:22:27.348Z,35.13
2018-01-30T18:24:55.024Z,35.46
2018-01-30T18:27:22.555Z,35.43
2018-01-30T18:29:50.062Z,35.36
2018-01-30T18:32:17.567Z,35.64
2018-01-30T18:34:45.129Z,49.11
2018-01-30T18:37:12.874Z,48.24
2018-01-30T18:39:45.672Z,34.51
2018-01-30T18:42:13.484Z,32.80
2018-01-30T18:44:41.978Z,33.04
2018-01-30T18:47:09.736Z,34.49
2018-01-30T18:49:38.071Z,35.03
2018-01-30T18:52:05.629Z,33.99
2018-01-30T18:54:33.380Z,33.46
2018-01-30T18:57:01.141Z,32.86
2018-01-30T18:59:28.708Z,34.34
2018-01-30T19:01:56.341Z,38.01
2018-01-30T19:04:23.976Z,39.40
2018-01-30T19:06:51.943Z,39.02
2018-01-30T19:09:19.610Z,39.27
2018-01-30T19:11:47.321Z,39.98
2018-01-30T19:14:16.028Z,39.96
2018-01-30T19:16:44.368Z,40.02
2018-01-30T19:19:20.377Z,39.80
2018-01-30T19:21:50.823Z,40.21
2018-01-30T19:24:22.570Z,40.35
2018-01-30T19:26:53.262Z,40.88
2018-01-30T19:29:22.354Z,40.95
2018-01-30T19:31:52.103Z,41.25
2018-01-30T19:34:20.112Z,41.15
2018-01-30T19:36:51.612Z,41.59
2018-01-30T19:39:20.150Z,41.24
2018-01-30T19:41:52.193Z,41.64
2018-01-30T19:44:21.322Z,42.91
2018-01-30T19:46:49.023Z,41.84
2018-01-30T19:49:17.723Z,42.23
2018-01-30T19:51:45.372Z,41.71
2018-01-30T19:54:13.024Z,42.59
2018-01-30T19:56:40.651Z,42.45
2018-01-30T19:59:08.234Z,42.69
2018-01-30T20:01:35.933Z,42.99
2018-01-30T20:04:04.478Z,43.68
2018-01-30T20:06:32.150Z,46.75
2018-01-30T20:08:59.700Z,46.47
2018-01-30T20:11:27.213Z,46.84
2018-01-30T20:13:54.733Z,46.72
2018-01-30T20:16:22.294Z,47.69
2018-01-30T20:18:50.044Z,46.56
2018-01-30T20:21:18.568Z,47.02
2018-01-30T20:23:46.125Z,47.82
2018-01-30T20:26:13.767Z,45.90
2018-01-30T20:28:42.160Z,46.10
2018-01-30T20:31:09.924Z,46.36
2018-01-30T20:33:37.566Z,46.73
2018-01-30T21:23:08.792Z,44.82
2018-01-30T21:25:36.327Z,47.27
2018-01-30T21:28:03.851Z,49.26
2018-01-30T21:30:31.566Z,50.82
2018-01-30T21:32:59.130Z,51.69
2018-01-30T21:35:26.710Z,52.67
2018-01-30T21:37:54.264Z,53.15
2018-01-30T21:40:21.785Z,53.89
2018-01-30T21:42:50.218Z,53.71
2018-01-30T21:45:18.620Z,54.82
2018-01-30T21:47:46.217Z,53.95
2018-01-30T21:50:13.754Z,54.59
2018-01-30T21:52:41.270Z,54.23
2018-01-30T21:55:08.935Z,54.61
2018-01-30T21:57:36.472Z,54.33
2018-01-30T22:00:08.049Z,54.80
2018-01-30T22:02:35.607Z,54.46
2018-01-30T22:05:03.172Z,54.46
2018-01-30T22:07:30.736Z,54.99
2018-01-30T22:09:58.330Z,55.83
2018-01-30T22:12:25.994Z,54.48
2018-01-30T22:14:53.621Z,54.86
2018-01-30T22:17:21.105Z,54.65
2018-01-30T22:19:48.717Z,55.41
2018-01-30T22:22:16.310Z,55.43
2018-01-30T22:24:44.083Z,54.98
2018-01-30T22:27:11.619Z,55.21
2018-01-30T22:29:39.278Z,54.89
2018-01-30T22:32:06.829Z,55.53
2018-01-30T22:34:34.576Z,54.80
2018-01-30T22:37:02.355Z,55.20
2018-01-30T22:39:29.920Z,54.80
2018-01-30T22:41:57.518Z,54.76
2018-01-30T22:44:30.036Z,55.24
2018-01-30T22:46:53.245Z,54.39
